createdAt,value
2022-09-03T00:00:52.736Z,43
2022-09-03T00:03:52.724Z,43
2022-09-03T00:06:52.741Z,43
2022-09-03T00:09:52.721Z,43
2022-09-03T00:12:52.739Z,43
2022-09-03T00:15:52.738Z,43
2022-09-03T00:18:52.736Z,43
2022-09-03T00:21:52.725Z,43
2022-09-03T00:24:52.735Z,43
2022-09-03T00:27:52.772Z,43
2022-09-03T00:30:52.760Z,43
2022-09-03T00:33:52.728Z,43
2022-09-03T00:36:52.744Z,43
2022-09-03T00:39:52.812Z,43
2022-09-03T00:42:52.749Z,43
2022-09-03T00:45:52.724Z,43
2022-09-03T00:48:52.754Z,43
2022-09-03T00:51:52.733Z,43.5
2022-09-03T00:54:52.743Z,44
2022-09-03T00:57:52.752Z,44
2022-09-03T01:00:52.742Z,44
2022-09-03T01:03:52.738Z,44
2022-09-03T01:06:52.755Z,44
2022-09-03T01:09:52.741Z,44
2022-09-03T01:12:52.751Z,44
2022-09-03T01:15:52.805Z,44
2022-09-03T01:18:52.756Z,44
2022-09-03T01:21:52.732Z,44
2022-09-03T01:24:52.751Z,44
2022-09-03T01:27:52.752Z,44
2022-09-03T01:30:52.806Z,44
2022-09-03T01:33:52.739Z,44
2022-09-03T01:36:52.756Z,44
2022-09-03T01:39:52.819Z,44
2022-09-03T01:42:52.758Z,44
2022-09-03T01:45:52.841Z,44
2022-09-03T01:48:52.756Z,44
2022-09-03T01:51:52.742Z,44.5
2022-09-03T01:54:52.754Z,44.5
2022-09-03T01:57:52.748Z,44.5
2022-09-03T02:00:52.760Z,45
2022-09-03T02:03:52.735Z,45
2022-09-03T02:06:52.753Z,45
2022-09-03T02:09:52.742Z,45
2022-09-03T02:12:52.767Z,45
2022-09-03T02:15:52.768Z,45
2022-09-03T02:18:52.751Z,45
2022-09-03T02:21:52.738Z,45
2022-09-03T02:24:52.755Z,45
2022-09-03T02:27:52.758Z,45
2022-09-03T02:30:52.782Z,45
2022-09-03T02:33:52.747Z,45
2022-09-03T02:36:52.752Z,45
2022-09-03T02:39:52.808Z,45
2022-09-03T02:42:52.833Z,45
2022-09-03T02:45:52.778Z,45
2022-09-03T02:48:52.764Z,45
2022-09-03T02:51:52.755Z,45
2022-09-03T02:54:52.775Z,45
2022-09-03T02:57:52.767Z,45
2022-09-03T03:00:52.779Z,45
2022-09-03T03:03:52.763Z,45
2022-09-03T03:06:52.773Z,45
2022-09-03T03:09:52.756Z,45
2022-09-03T03:12:52.779Z,45
2022-09-03T03:15:52.757Z,45
2022-09-03T03:18:52.796Z,45
2022-09-03T03:21:52.756Z,45.5
2022-09-03T03:24:52.767Z,45.5
2022-09-03T03:27:52.770Z,45.5
2022-09-03T03:30:52.823Z,46
2022-09-03T03:33:52.759Z,46
2022-09-03T03:36:52.764Z,46
2022-09-03T03:39:52.810Z,46
2022-09-03T03:42:52.775Z,46
2022-09-03T03:45:52.783Z,46
2022-09-03T03:48:52.770Z,46
2022-09-03T03:51:52.764Z,46
2022-09-03T03:54:52.773Z,46
2022-09-03T03:57:52.778Z,46
2022-09-03T04:00:52.807Z,46
2022-09-03T04:03:52.777Z,46
2022-09-03T04:06:52.764Z,46
2022-09-03T04:09:52.767Z,46
2022-09-03T04:12:52.778Z,46
2022-09-03T04:15:52.779Z,46
2022-09-03T04:18:52.966Z,46
2022-09-03T04:21:52.827Z,46
2022-09-03T04:24:52.825Z,46
2022-09-03T04:27:52.842Z,46
2022-09-03T04:30:52.920Z,46
2022-09-03T04:33:52.870Z,46
2022-09-03T04:36:53.033Z,46.5
2022-09-03T04:39:52.891Z,46
2022-09-03T04:42:52.874Z,46
2022-09-03T04:45:52.885Z,46
2022-09-03T04:48:52.847Z,46
2022-09-03T04:51:52.848Z,46.5
2022-09-03T04:54:52.845Z,46.5
2022-09-03T04:57:52.853Z,46.5
2022-09-03T05:00:52.889Z,46.5
2022-09-03T05:03:52.842Z,46.5
2022-09-03T05:06:52.840Z,46.5
2022-09-03T05:09:52.854Z,46.5
2022-09-03T05:12:52.963Z,46.5
2022-09-03T05:15:52.877Z,46.5
2022-09-03T05:18:52.850Z,46.5
2022-09-03T05:21:52.845Z,46.5
2022-09-03T05:24:52.841Z,46.5
2022-09-03T05:27:52.849Z,46.5
2022-09-03T05:30:52.843Z,46.5
2022-09-03T05:33:52.846Z,46.5
2022-09-03T05:36:52.850Z,46.5
2022-09-03T05:39:52.891Z,46.5
2022-09-03T05:42:52.852Z,46.5
2022-09-03T05:45:52.876Z,46.5
2022-09-03T05:48:52.839Z,46.5
2022-09-03T05:51:52.837Z,46.5
2022-09-03T05:54:52.850Z,46.5
2022-09-03T05:57:52.849Z,47
2022-09-03T06:00:52.836Z,46.5
2022-09-03T06:03:52.841Z,47
2022-09-03T06:06:52.856Z,47
2022-09-03T06:09:52.843Z,47.5
2022-09-03T06:12:52.858Z,47
2022-09-03T06:15:52.844Z,47
2022-09-03T06:18:52.855Z,47.5
2022-09-03T06:21:52.842Z,47.5
2022-09-03T06:24:52.861Z,47.5
2022-09-03T06:27:52.859Z,47.5
2022-09-03T06:30:52.846Z,47.5
2022-09-03T06:33:52.861Z,47.5
2022-09-03T06:36:53.830Z,47.5
2022-09-03T06:39:52.908Z,47.5
2022-09-03T06:42:52.846Z,47.5
2022-09-03T06:45:52.925Z,47.5
2022-09-03T06:48:52.867Z,47.5
2022-09-03T06:51:52.854Z,47.5
2022-09-03T06:54:52.852Z,48
2022-09-03T06:57:53.067Z,48.5
2022-09-03T07:00:52.963Z,48.5
2022-09-03T07:03:52.891Z,48.5
2022-09-03T07:06:52.853Z,48.5
2022-09-03T07:09:52.854Z,48.5
2022-09-03T07:12:52.854Z,48.5
2022-09-03T07:15:52.883Z,49
2022-09-03T07:18:52.856Z,48.5
2022-09-03T07:21:52.851Z,49
2022-09-03T07:24:52.851Z,49
2022-09-03T07:27:52.855Z,49
2022-09-03T07:30:52.869Z,49.5
2022-09-03T07:33:52.853Z,49.5
2022-09-03T07:36:52.861Z,49.5
2022-09-03T07:39:52.897Z,49.5
2022-09-03T07:42:55.139Z,49.5
2022-09-03T07:45:52.873Z,49.5
2022-09-03T07:48:52.865Z,50
2022-09-03T07:51:52.854Z,50
2022-09-03T07:54:52.862Z,50
2022-09-03T07:57:52.859Z,50
2022-09-03T08:00:52.980Z,50
2022-09-03T08:03:52.889Z,50
2022-09-03T08:06:52.863Z,50
2022-09-03T08:09:52.864Z,50
2022-09-03T08:12:52.892Z,50.5
2022-09-03T08:15:52.957Z,50.5
2022-09-03T08:18:52.894Z,50.5
2022-09-03T08:21:52.864Z,51
2022-09-03T08:24:52.866Z,51
2022-09-03T08:27:52.872Z,51
2022-09-03T08:30:52.867Z,51
2022-09-03T08:33:52.875Z,51
2022-09-03T08:36:52.865Z,51
2022-09-03T08:39:52.955Z,51.5
2022-09-03T08:42:52.897Z,51.5
2022-09-03T08:45:52.891Z,52
2022-09-03T08:48:52.901Z,52
2022-09-03T08:51:52.899Z,52.5
2022-09-03T08:54:52.880Z,52.5
2022-09-03T08:57:52.903Z,52.5
2022-09-03T09:00:52.879Z,52.5
2022-09-03T09:03:52.902Z,52.5
2022-09-03T09:06:52.891Z,52.5
2022-09-03T09:09:52.906Z,53
2022-09-03T09:12:52.895Z,53.5
2022-09-03T09:15:52.985Z,53.5
2022-09-03T09:18:52.903Z,53.5
2022-09-03T09:21:52.895Z,54
2022-09-03T09:24:52.905Z,53.5
2022-09-03T09:27:52.898Z,53
2022-09-03T09:30:52.937Z,53
2022-09-03T09:33:52.896Z,53.5
2022-09-03T09:36:52.901Z,53.5
2022-09-03T09:39:52.928Z,53
2022-09-03T09:42:53.104Z,53
2022-09-03T09:45:52.910Z,53
2022-09-03T09:48:52.906Z,53
2022-09-03T09:51:52.892Z,53
2022-09-03T09:54:52.916Z,53
2022-09-03T09:57:52.908Z,53
2022-09-03T10:00:52.930Z,53.5
2022-09-03T10:03:52.902Z,53.5
2022-09-03T10:06:52.892Z,54
2022-09-03T10:09:52.903Z,54
2022-09-03T10:12:52.896Z,54
2022-09-03T10:15:52.945Z,54
2022-09-03T10:18:52.899Z,55
2022-09-03T10:21:52.900Z,55
2022-09-03T10:24:52.924Z,55
2022-09-03T10:27:52.902Z,55
2022-09-03T10:30:52.955Z,55
2022-09-03T10:33:52.896Z,56
2022-09-03T10:36:52.898Z,56
2022-09-03T10:39:52.931Z,56
2022-09-03T10:42:52.913Z,55.5
2022-09-03T10:45:52.929Z,55.5
2022-09-03T10:48:52.940Z,55.5
2022-09-03T10:51:52.926Z,55.5
2022-09-03T10:54:52.902Z,55.5
2022-09-03T10:57:52.927Z,55
2022-09-03T11:00:52.909Z,55
2022-09-03T11:03:52.910Z,55
2022-09-03T11:06:52.907Z,55
2022-09-03T11:09:52.910Z,55
2022-09-03T11:12:53.038Z,55
2022-09-03T11:15:52.991Z,55
2022-09-03T11:18:52.905Z,55
2022-09-03T11:21:52.906Z,55
2022-09-03T11:24:52.931Z,55
2022-09-03T11:27:56.402Z,55
2022-09-03T11:30:52.956Z,55
2022-09-03T11:33:52.938Z,55
2022-09-03T11:36:52.914Z,55
2022-09-03T11:39:52.977Z,55.5
2022-09-03T11:42:52.934Z,55
2022-09-03T11:45:52.943Z,55
2022-09-03T11:48:52.936Z,55.5
2022-09-03T11:51:52.944Z,55
2022-09-03T11:54:52.936Z,55.5
2022-09-03T11:57:52.935Z,55.5
2022-09-03T12:00:52.942Z,55.5
2022-09-03T12:03:52.928Z,55
2022-09-03T12:06:52.917Z,55
2022-09-03T12:09:52.934Z,54.5
2022-09-03T12:12:52.939Z,54.5
2022-09-03T12:15:52.966Z,54.5
2022-09-03T12:18:52.945Z,54
2022-09-03T12:21:52.944Z,54
2022-09-03T12:24:52.937Z,54
2022-09-03T12:27:52.946Z,54
2022-09-03T12:30:53.009Z,53.5
2022-09-03T12:33:52.951Z,53.5
2022-09-03T12:36:52.947Z,53
2022-09-03T12:40:08.202Z,53
2022-09-03T12:42:53.033Z,53
2022-09-03T12:46:11.063Z,53
2022-09-03T12:51:56.240Z,53
2022-09-03T12:54:52.942Z,53
2022-09-03T12:57:56.981Z,53
2022-09-03T13:00:52.986Z,53.5
2022-09-03T13:03:52.945Z,53.5
2022-09-03T13:06:52.952Z,53.5
2022-09-03T13:09:52.949Z,53.5
2022-09-03T13:12:53.523Z,53.5
2022-09-03T13:15:52.952Z,53.5
2022-09-03T13:18:52.953Z,53.5
2022-09-03T13:21:52.985Z,53.5
2022-09-03T13:24:52.938Z,53.5
2022-09-03T13:27:52.955Z,53.5
2022-09-03T13:30:53.000Z,53.5
2022-09-03T13:33:52.942Z,53.5
2022-09-03T13:36:52.941Z,53.5
2022-09-03T13:39:52.970Z,54
2022-09-03T13:42:53.370Z,54
2022-09-03T13:45:52.980Z,54
2022-09-03T13:48:52.952Z,54
2022-09-03T13:51:52.942Z,54
2022-09-03T13:54:52.958Z,54
2022-09-03T13:57:52.942Z,54
2022-09-03T14:00:52.988Z,54
2022-09-03T14:03:52.941Z,54
2022-09-03T14:06:52.932Z,54
2022-09-03T14:09:52.960Z,54
2022-09-03T14:12:52.969Z,54
2022-09-03T14:15:52.965Z,54
2022-09-03T14:18:52.945Z,54
2022-09-03T14:21:52.944Z,54
2022-09-03T14:24:52.946Z,54
2022-09-03T14:27:52.946Z,54
2022-09-03T14:30:55.783Z,54
2022-09-03T14:33:52.942Z,54
2022-09-03T14:36:52.957Z,54
2022-09-03T14:39:53.057Z,54
2022-09-03T14:42:52.960Z,54.5
2022-09-03T14:45:52.991Z,54.5
2022-09-03T14:48:52.966Z,54.5
2022-09-03T14:51:52.967Z,54.5
2022-09-03T14:54:52.946Z,54.5
2022-09-03T14:57:52.968Z,54.5
2022-09-03T15:00:52.969Z,54.5
2022-09-03T15:03:52.969Z,54.5
2022-09-03T15:06:52.966Z,54.5
2022-09-03T15:09:52.959Z,54.5
2022-09-03T15:12:52.945Z,54.5
2022-09-03T15:15:52.963Z,54.5
2022-09-03T15:18:52.975Z,54.5
2022-09-03T15:21:52.999Z,54.5
2022-09-03T15:24:52.957Z,54.5
2022-09-03T15:27:52.971Z,54.5
2022-09-03T15:30:52.973Z,55
2022-09-03T15:33:52.967Z,55
2022-09-03T15:36:52.978Z,55
2022-09-03T15:39:53.026Z,55
2022-09-03T15:42:52.967Z,55
2022-09-03T15:45:53.015Z,55
2022-09-03T15:48:52.957Z,55
2022-09-03T15:51:52.980Z,55
2022-09-03T15:54:52.968Z,55.5
2022-09-03T15:57:54.711Z,55.5
2022-09-03T16:00:53.028Z,55.5
2022-09-03T16:03:52.991Z,55.5
2022-09-03T16:06:52.996Z,55.5
2022-09-03T16:10:07.830Z,55.5
2022-09-03T16:12:52.969Z,55.5
2022-09-03T16:15:52.967Z,55.5
2022-09-03T16:18:52.979Z,55.5
2022-09-03T16:21:52.980Z,55.5
2022-09-03T16:24:52.979Z,55.5
2022-09-03T16:27:52.990Z,55.5
2022-09-03T16:30:52.968Z,56.5
2022-09-03T16:33:52.986Z,56.5
2022-09-03T16:36:52.982Z,56.5
2022-09-03T16:39:53.029Z,56.5
2022-09-03T16:42:52.965Z,56.5
2022-09-03T16:45:53.018Z,56.5
2022-09-03T16:48:52.991Z,56.5
2022-09-03T16:51:52.988Z,56.5
2022-09-03T16:54:55.794Z,56.5
2022-09-03T16:57:52.966Z,57
2022-09-03T17:00:53.131Z,57
2022-09-03T17:03:52.986Z,57.5
2022-09-03T17:06:52.987Z,57.5
2022-09-03T17:09:55.661Z,57.5
2022-09-03T17:12:52.966Z,57.5
2022-09-03T17:15:53.019Z,58
2022-09-03T17:18:52.991Z,58
2022-09-03T17:21:52.997Z,58
2022-09-03T17:24:52.993Z,58.5
2022-09-03T17:27:52.970Z,58.5
2022-09-03T17:30:52.981Z,58
2022-09-03T17:33:52.991Z,58
2022-09-03T17:36:52.994Z,58
2022-09-03T17:39:53.195Z,58
2022-09-03T17:42:52.978Z,58
2022-09-03T17:45:52.991Z,58
2022-09-03T17:48:52.972Z,58
2022-09-03T17:51:53.015Z,58
2022-09-03T17:54:52.995Z,58
2022-09-03T17:57:52.984Z,58
2022-09-03T18:00:52.975Z,58
2022-09-03T18:03:52.998Z,58.5
2022-09-03T18:06:52.998Z,58.5
2022-09-03T18:09:52.995Z,58.5
2022-09-03T18:13:03.527Z,58.5
2022-09-03T18:15:53.016Z,58.5
2022-09-03T18:18:52.980Z,59
2022-09-03T18:21:52.995Z,59
2022-09-03T18:24:53.007Z,59
2022-09-03T18:27:52.983Z,59
2022-09-03T18:30:53.071Z,59.5
2022-09-03T18:33:52.983Z,59.5
2022-09-03T18:36:53.007Z,59.5
2022-09-03T18:39:53.044Z,59.5
2022-09-03T18:42:52.993Z,59.5
2022-09-03T18:46:22.571Z,59.5
2022-09-03T18:48:53.058Z,59.5
2022-09-03T18:51:53.006Z,59.5
2022-09-03T18:55:07.166Z,59.5
2022-09-03T18:57:52.994Z,59.5
2022-09-03T19:00:53.002Z,60
2022-09-03T19:03:53.001Z,60
2022-09-03T19:06:53.026Z,60
2022-09-03T19:09:52.995Z,60
2022-09-03T19:12:58.748Z,60
2022-09-03T19:15:53.262Z,60
2022-09-03T19:18:53.013Z,60
2022-09-03T19:21:55.486Z,60
2022-09-03T19:24:52.992Z,60
2022-09-03T19:27:57.192Z,60
2022-09-03T19:30:53.140Z,60
2022-09-03T19:33:53.030Z,60
2022-09-03T19:36:53.000Z,60.5
2022-09-03T19:39:53.117Z,60.5
2022-09-03T19:42:52.994Z,60.5
2022-09-03T19:45:53.076Z,60.5
2022-09-03T19:48:53.002Z,61
2022-09-03T19:51:53.016Z,61
2022-09-03T19:54:53.002Z,61
2022-09-03T19:57:53.025Z,61
2022-09-03T20:00:52.993Z,61
2022-09-03T20:03:52.995Z,61
2022-09-03T20:06:53.005Z,61
2022-09-03T20:09:52.998Z,61
2022-09-03T20:12:52.997Z,61
2022-09-03T20:15:53.124Z,61
2022-09-03T20:18:53.006Z,61
2022-09-03T20:21:53.005Z,61
2022-09-03T20:24:53.024Z,61
2022-09-03T20:27:53.004Z,61
2022-09-03T20:30:53.075Z,61
2022-09-03T20:33:53.006Z,61.5
2022-09-03T20:36:53.007Z,61.5
2022-09-03T20:39:53.048Z,62
2022-09-03T20:42:53.013Z,62
2022-09-03T20:45:53.055Z,62
2022-09-03T20:48:53.007Z,62
2022-09-03T20:51:53.030Z,62
2022-09-03T20:54:53.012Z,62
2022-09-03T20:57:53.021Z,62
2022-09-03T21:00:53.043Z,62
2022-09-03T21:03:53.009Z,62.5
2022-09-03T21:06:53.034Z,62.5
2022-09-03T21:09:53.233Z,63
2022-09-03T21:12:53.035Z,63
2022-09-03T21:15:56.393Z,63
2022-09-03T21:18:53.003Z,63.5
2022-09-03T21:21:53.035Z,63.5
2022-09-03T21:24:53.020Z,63.5
2022-09-03T21:27:53.037Z,63.5
2022-09-03T21:30:53.100Z,64
2022-09-03T21:33:53.017Z,64
2022-09-03T21:36:53.035Z,64
2022-09-03T21:39:53.079Z,64.5
2022-09-03T21:42:53.051Z,64.5
2022-09-03T21:45:53.048Z,64.5
2022-09-03T21:48:53.021Z,64.5
2022-09-03T21:51:53.035Z,65
2022-09-03T21:54:53.012Z,65
2022-09-03T21:57:53.044Z,65
2022-09-03T22:00:53.035Z,65
2022-09-03T22:03:53.016Z,65.5
2022-09-03T22:06:53.043Z,65.5
2022-09-03T22:09:53.016Z,65.5
2022-09-03T22:12:53.039Z,65.5
2022-09-03T22:15:53.037Z,65.5
2022-09-03T22:18:53.022Z,66
2022-09-03T22:21:53.037Z,66
2022-09-03T22:24:53.025Z,66
2022-09-03T22:27:54.484Z,66
2022-09-03T22:30:53.084Z,66
2022-09-03T22:33:53.024Z,66
2022-09-03T22:36:53.041Z,66.5
2022-09-03T22:39:53.084Z,66.5
2022-09-03T22:42:53.040Z,66.5
2022-09-03T22:45:53.065Z,66.5
2022-09-03T22:48:53.028Z,66.5
2022-09-03T22:51:53.048Z,66.5
2022-09-03T22:54:53.027Z,67
2022-09-03T22:57:53.042Z,67
2022-09-03T23:00:53.067Z,67
2022-09-03T23:03:53.048Z,67
2022-09-03T23:06:53.030Z,67
2022-09-03T23:09:53.032Z,67
2022-09-03T23:12:53.052Z,67.5
2022-09-03T23:15:53.045Z,67.5
2022-09-03T23:18:53.079Z,67.5
2022-09-03T23:21:53.069Z,67.5
2022-09-03T23:24:53.026Z,67.5
2022-09-03T23:27:53.040Z,67.5
2022-09-03T23:30:53.041Z,67.5
2022-09-03T23:33:53.035Z,67.5
2022-09-03T23:37:06.093Z,68
2022-09-03T23:39:53.099Z,68
2022-09-03T23:42:53.044Z,68
2022-09-03T23:45:53.151Z,68
2022-09-03T23:48:53.031Z,68
2022-09-03T23:51:53.050Z,68
2022-09-03T23:54:53.052Z,68
2022-09-03T23:57:53.046Z,68
